sensor_id;sensor_type;location;lat;lon;timestamp;P1;durP1;ratioP1;P2;durP2;ratioP2
59770;SDS011;45649;53.014;6.600;2023-05-29T00:00:21;13.30;;;2.70;;
59770;SDS011;45649;53.014;6.600;2023-05-29T00:02:48;14.23;;;2.93;;
59770;SDS011;45649;53.014;6.600;2023-05-29T00:05:14;9.87;;;2.60;;
59770;SDS011;45649;53.014;6.600;2023-05-29T00:07:41;11.20;;;2.30;;
59770;SDS011;45649;53.014;6.600;2023-05-29T00:10:08;9.53;;;2.43;;
59770;SDS011;45649;53.014;6.600;2023-05-29T00:12:34;12.37;;;2.67;;
59770;SDS011;45649;53.014;6.600;2023-05-29T00:15:01;10.47;;;2.60;;
59770;SDS011;45649;53.014;6.600;2023-05-29T00:17:29;10.13;;;2.80;;
59770;SDS011;45649;53.014;6.600;2023-05-29T00:19:57;9.50;;;2.77;;
59770;SDS011;45649;53.014;6.600;2023-05-29T00:22:24;10.17;;;2.50;;
59770;SDS011;45649;53.014;6.600;2023-05-29T00:24:53;12.73;;;2.53;;
59770;SDS011;45649;53.014;6.600;2023-05-29T00:27:19;10.73;;;2.70;;
59770;SDS011;45649;53.014;6.600;2023-05-29T00:29:45;9.00;;;2.47;;
59770;SDS011;45649;53.014;6.600;2023-05-29T00:32:12;8.87;;;2.50;;
59770;SDS011;45649;53.014;6.600;2023-05-29T00:34:38;10.93;;;2.60;;
59770;SDS011;45649;53.014;6.600;2023-05-29T00:37:04;6.87;;;2.30;;
59770;SDS011;45649;53.014;6.600;2023-05-29T00:39:31;10.30;;;2.20;;
59770;SDS011;45649;53.014;6.600;2023-05-29T00:41:57;12.87;;;2.20;;
59770;SDS011;45649;53.014;6.600;2023-05-29T00:44:23;15.27;;;2.83;;
59770;SDS011;45649;53.014;6.600;2023-05-29T00:46:51;9.90;;;2.50;;
59770;SDS011;45649;53.014;6.600;2023-05-29T00:49:18;15.50;;;2.63;;
59770;SDS011;45649;53.014;6.600;2023-05-29T00:51:44;10.17;;;2.77;;
59770;SDS011;45649;53.014;6.600;2023-05-29T00:54:11;9.80;;;2.33;;
59770;SDS011;45649;53.014;6.600;2023-05-29T00:56:41;9.07;;;2.17;;
59770;SDS011;45649;53.014;6.600;2023-05-29T00:59:09;11.77;;;2.40;;
59770;SDS011;45649;53.014;6.600;2023-05-29T01:01:35;9.20;;;2.50;;
59770;SDS011;45649;53.014;6.600;2023-05-29T01:04:02;13.10;;;2.63;;
59770;SDS011;45649;53.014;6.600;2023-05-29T01:06:29;10.40;;;2.50;;
59770;SDS011;45649;53.014;6.600;2023-05-29T01:08:55;9.80;;;2.33;;
59770;SDS011;45649;53.014;6.600;2023-05-29T01:11:24;10.07;;;2.33;;
59770;SDS011;45649;53.014;6.600;2023-05-29T01:13:53;9.50;;;2.30;;
59770;SDS011;45649;53.014;6.600;2023-05-29T01:16:26;9.53;;;2.47;;
59770;SDS011;45649;53.014;6.600;2023-05-29T01:21:35;11.97;;;2.43;;
59770;SDS011;45649;53.014;6.600;2023-05-29T01:26:47;10.23;;;2.50;;
59770;SDS011;45649;53.014;6.600;2023-05-29T01:29:17;10.23;;;2.43;;
59770;SDS011;45649;53.014;6.600;2023-05-29T01:31:45;16.83;;;2.60;;
59770;SDS011;45649;53.014;6.600;2023-05-29T01:34:11;16.37;;;2.63;;
59770;SDS011;45649;53.014;6.600;2023-05-29T01:36:37;14.50;;;2.77;;
59770;SDS011;45649;53.014;6.600;2023-05-29T01:39:04;13.00;;;2.97;;
59770;SDS011;45649;53.014;6.600;2023-05-29T01:41:30;15.27;;;2.93;;
59770;SDS011;45649;53.014;6.600;2023-05-29T01:43:57;14.90;;;2.87;;
59770;SDS011;45649;53.014;6.600;2023-05-29T01:46:24;10.40;;;2.50;;
59770;SDS011;45649;53.014;6.600;2023-05-29T01:48:50;12.57;;;2.70;;
59770;SDS011;45649;53.014;6.600;2023-05-29T01:51:17;13.27;;;2.50;;
59770;SDS011;45649;53.014;6.600;2023-05-29T01:53:43;10.53;;;2.37;;
59770;SDS011;45649;53.014;6.600;2023-05-29T01:56:09;13.90;;;2.80;;
59770;SDS011;45649;53.014;6.600;2023-05-29T01:58:35;11.00;;;2.60;;
59770;SDS011;45649;53.014;6.600;2023-05-29T02:01:02;13.07;;;2.53;;
59770;SDS011;45649;53.014;6.600;2023-05-29T02:03:29;9.57;;;2.83;;
59770;SDS011;45649;53.014;6.600;2023-05-29T02:05:56;10.00;;;2.50;;
59770;SDS011;45649;53.014;6.600;2023-05-29T02:08:22;12.33;;;2.33;;
59770;SDS011;45649;53.014;6.600;2023-05-29T02:10:49;12.40;;;2.80;;
59770;SDS011;45649;53.014;6.600;2023-05-29T02:13:16;13.50;;;2.73;;
59770;SDS011;45649;53.014;6.600;2023-05-29T02:15:42;10.60;;;2.60;;
59770;SDS011;45649;53.014;6.600;2023-05-29T02:18:12;12.30;;;2.90;;
59770;SDS011;45649;53.014;6.600;2023-05-29T02:20:38;9.37;;;3.00;;
59770;SDS011;45649;53.014;6.600;2023-05-29T02:23:04;10.00;;;2.40;;
59770;SDS011;45649;53.014;6.600;2023-05-29T02:25:31;11.77;;;2.67;;
59770;SDS011;45649;53.014;6.600;2023-05-29T02:27:57;9.20;;;2.70;;
59770;SDS011;45649;53.014;6.600;2023-05-29T02:30:23;13.67;;;2.97;;
59770;SDS011;45649;53.014;6.600;2023-05-29T02:32:49;17.30;;;2.80;;
59770;SDS011;45649;53.014;6.600;2023-05-29T02:35:15;12.37;;;2.70;;
59770;SDS011;45649;53.014;6.600;2023-05-29T02:37:43;9.10;;;2.73;;
59770;SDS011;45649;53.014;6.600;2023-05-29T02:40:09;11.40;;;2.83;;
59770;SDS011;45649;53.014;6.600;2023-05-29T02:42:35;12.17;;;2.90;;
59770;SDS011;45649;53.014;6.600;2023-05-29T02:45:02;13.33;;;3.00;;
59770;SDS011;45649;53.014;6.600;2023-05-29T02:47:29;8.63;;;2.77;;
59770;SDS011;45649;53.014;6.600;2023-05-29T02:49:55;12.80;;;2.70;;
59770;SDS011;45649;53.014;6.600;2023-05-29T02:52:21;12.33;;;2.87;;
59770;SDS011;45649;53.014;6.600;2023-05-29T02:54:48;11.77;;;2.80;;
59770;SDS011;45649;53.014;6.600;2023-05-29T02:57:14;16.30;;;2.80;;
59770;SDS011;45649;53.014;6.600;2023-05-29T02:59:40;12.87;;;2.60;;
59770;SDS011;45649;53.014;6.600;2023-05-29T03:02:07;11.73;;;3.07;;
59770;SDS011;45649;53.014;6.600;2023-05-29T03:04:33;13.23;;;3.07;;
59770;SDS011;45649;53.014;6.600;2023-05-29T03:06:59;12.40;;;2.80;;
59770;SDS011;45649;53.014;6.600;2023-05-29T03:09:25;11.90;;;2.70;;
59770;SDS011;45649;53.014;6.600;2023-05-29T03:11:51;13.97;;;3.13;;
59770;SDS011;45649;53.014;6.600;2023-05-29T03:14:17;11.90;;;2.53;;
59770;SDS011;45649;53.014;6.600;2023-05-29T03:16:44;12.77;;;3.20;;
59770;SDS011;45649;53.014;6.600;2023-05-29T03:19:10;16.37;;;2.53;;
59770;SDS011;45649;53.014;6.600;2023-05-29T03:21:36;6.47;;;2.40;;
59770;SDS011;45649;53.014;6.600;2023-05-29T03:24:03;10.37;;;2.57;;
59770;SDS011;45649;53.014;6.600;2023-05-29T03:26:29;10.13;;;2.63;;
59770;SDS011;45649;53.014;6.600;2023-05-29T03:28:55;11.87;;;2.70;;
59770;SDS011;45649;53.014;6.600;2023-05-29T03:31:21;12.60;;;2.80;;
59770;SDS011;45649;53.014;6.600;2023-05-29T03:33:49;9.70;;;2.70;;
59770;SDS011;45649;53.014;6.600;2023-05-29T03:36:15;10.00;;;2.47;;
59770;SDS011;45649;53.014;6.600;2023-05-29T03:38:44;10.47;;;2.30;;
59770;SDS011;45649;53.014;6.600;2023-05-29T03:41:10;14.43;;;2.83;;
59770;SDS011;45649;53.014;6.600;2023-05-29T03:43:37;11.07;;;2.33;;
59770;SDS011;45649;53.014;6.600;2023-05-29T03:46:03;12.00;;;2.70;;
59770;SDS011;45649;53.014;6.600;2023-05-29T03:48:29;13.83;;;2.77;;
59770;SDS011;45649;53.014;6.600;2023-05-29T03:50:55;10.97;;;2.40;;
59770;SDS011;45649;53.014;6.600;2023-05-29T03:53:21;12.67;;;3.00;;
59770;SDS011;45649;53.014;6.600;2023-05-29T03:55:47;12.63;;;3.30;;
59770;SDS011;45649;53.014;6.600;2023-05-29T03:58:13;12.07;;;2.57;;
59770;SDS011;45649;53.014;6.600;2023-05-29T04:00:40;11.53;;;2.63;;
59770;SDS011;45649;53.014;6.600;2023-05-29T04:03:08;12.13;;;2.60;;
59770;SDS011;45649;53.014;6.600;2023-05-29T04:05:34;15.90;;;2.77;;
59770;SDS011;45649;53.014;6.600;2023-05-29T04:08:00;13.47;;;2.90;;
59770;SDS011;45649;53.014;6.600;2023-05-29T04:10:29;10.00;;;2.50;;
59770;SDS011;45649;53.014;6.600;2023-05-29T04:12:59;9.63;;;2.20;;
59770;SDS011;45649;53.014;6.600;2023-05-29T04:15:26;12.63;;;3.17;;
59770;SDS011;45649;53.014;6.600;2023-05-29T04:17:53;11.37;;;2.80;;
59770;SDS011;45649;53.014;6.600;2023-05-29T04:20:19;9.63;;;2.70;;
59770;SDS011;45649;53.014;6.600;2023-05-29T04:22:45;14.07;;;2.67;;
59770;SDS011;45649;53.014;6.600;2023-05-29T04:25:12;11.67;;;2.60;;
59770;SDS011;45649;53.014;6.600;2023-05-29T04:27:38;13.73;;;2.70;;
59770;SDS011;45649;53.014;6.600;2023-05-29T04:30:05;8.63;;;2.87;;
59770;SDS011;45649;53.014;6.600;2023-05-29T04:32:32;12.80;;;2.87;;
59770;SDS011;45649;53.014;6.600;2023-05-29T04:34:58;12.77;;;2.80;;
59770;SDS011;45649;53.014;6.600;2023-05-29T04:37:28;11.83;;;2.33;;
59770;SDS011;45649;53.014;6.600;2023-05-29T04:39:55;16.30;;;2.67;;
59770;SDS011;45649;53.014;6.600;2023-05-29T04:42:22;11.60;;;2.33;;
59770;SDS011;45649;53.014;6.600;2023-05-29T04:44:52;10.93;;;2.50;;
59770;SDS011;45649;53.014;6.600;2023-05-29T04:47:19;12.63;;;2.63;;
59770;SDS011;45649;53.014;6.600;2023-05-29T04:49:45;11.00;;;2.37;;
59770;SDS011;45649;53.014;6.600;2023-05-29T04:52:15;13.87;;;2.90;;
59770;SDS011;45649;53.014;6.600;2023-05-29T04:54:41;10.27;;;2.37;;
59770;SDS011;45649;53.014;6.600;2023-05-29T04:57:08;15.70;;;2.47;;
59770;SDS011;45649;53.014;6.600;2023-05-29T04:59:34;10.25;;;2.90;;
59770;SDS011;45649;53.014;6.600;2023-05-29T05:02:00;8.37;;;2.33;;
59770;SDS011;45649;53.014;6.600;2023-05-29T05:04:26;9.77;;;2.30;;
59770;SDS011;45649;53.014;6.600;2023-05-29T05:06:52;11.67;;;2.80;;
59770;SDS011;45649;53.014;6.600;2023-05-29T05:09:19;11.30;;;2.83;;
59770;SDS011;45649;53.014;6.600;2023-05-29T05:11:45;13.60;;;2.90;;
59770;SDS011;45649;53.014;6.600;2023-05-29T05:14:11;10.23;;;2.60;;
59770;SDS011;45649;53.014;6.600;2023-05-29T05:16:37;12.80;;;2.83;;
59770;SDS011;45649;53.014;6.600;2023-05-29T05:19:03;14.53;;;2.60;;
59770;SDS011;45649;53.014;6.600;2023-05-29T05:21:29;8.50;;;2.40;;
59770;SDS011;45649;53.014;6.600;2023-05-29T05:23:58;11.50;;;2.50;;
59770;SDS011;45649;53.014;6.600;2023-05-29T05:26:24;9.13;;;2.47;;
59770;SDS011;45649;53.014;6.600;2023-05-29T05:28:53;9.97;;;2.70;;
59770;SDS011;45649;53.014;6.600;2023-05-29T05:31:20;10.40;;;2.60;;
59770;SDS011;45649;53.014;6.600;2023-05-29T05:33:46;9.43;;;2.47;;
59770;SDS011;45649;53.014;6.600;2023-05-29T05:36:12;12.10;;;2.50;;
59770;SDS011;45649;53.014;6.600;2023-05-29T05:38:38;11.77;;;2.70;;
59770;SDS011;45649;53.014;6.600;2023-05-29T05:41:04;15.83;;;2.90;;
59770;SDS011;45649;53.014;6.600;2023-05-29T05:43:30;12.03;;;2.63;;
59770;SDS011;45649;53.014;6.600;2023-05-29T05:45:56;13.77;;;2.90;;
59770;SDS011;45649;53.014;6.600;2023-05-29T05:48:23;10.90;;;3.00;;
59770;SDS011;45649;53.014;6.600;2023-05-29T05:50:49;9.93;;;2.43;;
59770;SDS011;45649;53.014;6.600;2023-05-29T05:53:15;11.27;;;2.30;;
59770;SDS011;45649;53.014;6.600;2023-05-29T05:55:46;13.23;;;2.90;;
59770;SDS011;45649;53.014;6.600;2023-05-29T05:58:12;11.63;;;2.70;;
59770;SDS011;45649;53.014;6.600;2023-05-29T06:00:39;9.60;;;2.73;;
59770;SDS011;45649;53.014;6.600;2023-05-29T06:03:05;13.00;;;3.00;;
59770;SDS011;45649;53.014;6.600;2023-05-29T06:05:31;9.33;;;2.70;;
59770;SDS011;45649;53.014;6.600;2023-05-29T06:07:59;10.80;;;2.93;;
59770;SDS011;45649;53.014;6.600;2023-05-29T06:10:25;11.27;;;2.60;;
59770;SDS011;45649;53.014;6.600;2023-05-29T06:12:51;11.90;;;3.10;;
59770;SDS011;45649;53.014;6.600;2023-05-29T06:15:17;13.43;;;3.40;;
59770;SDS011;45649;53.014;6.600;2023-05-29T06:17:44;9.70;;;2.90;;
59770;SDS011;45649;53.014;6.600;2023-05-29T06:20:10;7.03;;;2.43;;
59770;SDS011;45649;53.014;6.600;2023-05-29T06:22:37;10.83;;;3.00;;
59770;SDS011;45649;53.014;6.600;2023-05-29T06:25:03;13.70;;;3.37;;
59770;SDS011;45649;53.014;6.600;2023-05-29T06:27:29;17.97;;;3.40;;
59770;SDS011;45649;53.014;6.600;2023-05-29T06:29:56;14.17;;;3.53;;
59770;SDS011;45649;53.014;6.600;2023-05-29T06:32:22;12.60;;;2.90;;
59770;SDS011;45649;53.014;6.600;2023-05-29T06:34:48;12.83;;;3.27;;
59770;SDS011;45649;53.014;6.600;2023-05-29T06:37:14;12.80;;;3.07;;
59770;SDS011;45649;53.014;6.600;2023-05-29T06:39:43;17.35;;;3.50;;
59770;SDS011;45649;53.014;6.600;2023-05-29T06:42:09;14.27;;;2.87;;
59770;SDS011;45649;53.014;6.600;2023-05-29T06:44:36;16.13;;;3.03;;
59770;SDS011;45649;53.014;6.600;2023-05-29T06:47:02;12.20;;;2.97;;
59770;SDS011;45649;53.014;6.600;2023-05-29T06:49:28;16.63;;;3.30;;
59770;SDS011;45649;53.014;6.600;2023-05-29T06:51:54;15.93;;;3.30;;
59770;SDS011;45649;53.014;6.600;2023-05-29T06:54:20;15.43;;;3.40;;
59770;SDS011;45649;53.014;6.600;2023-05-29T06:56:46;14.27;;;3.47;;
59770;SDS011;45649;53.014;6.600;2023-05-29T06:59:12;15.43;;;3.03;;
59770;SDS011;45649;53.014;6.600;2023-05-29T07:01:38;16.33;;;3.63;;
59770;SDS011;45649;53.014;6.600;2023-05-29T07:04:04;15.57;;;3.30;;
59770;SDS011;45649;53.014;6.600;2023-05-29T07:06:31;14.90;;;2.97;;
59770;SDS011;45649;53.014;6.600;2023-05-29T07:08:59;12.50;;;3.37;;
59770;SDS011;45649;53.014;6.600;2023-05-29T07:11:25;12.37;;;2.83;;
59770;SDS011;45649;53.014;6.600;2023-05-29T07:13:52;12.77;;;3.70;;
59770;SDS011;45649;53.014;6.600;2023-05-29T07:16:19;10.80;;;3.30;;
59770;SDS011;45649;53.014;6.600;2023-05-29T07:18:45;8.70;;;3.00;;
59770;SDS011;45649;53.014;6.600;2023-05-29T07:21:11;15.03;;;3.70;;
59770;SDS011;45649;53.014;6.600;2023-05-29T07:23:38;16.37;;;3.67;;
59770;SDS011;45649;53.014;6.600;2023-05-29T07:26:05;15.87;;;3.57;;
59770;SDS011;45649;53.014;6.600;2023-05-29T07:28:31;13.10;;;3.50;;
59770;SDS011;45649;53.014;6.600;2023-05-29T07:30:57;13.43;;;3.67;;
59770;SDS011;45649;53.014;6.600;2023-05-29T07:33:23;12.70;;;3.20;;
59770;SDS011;45649;53.014;6.600;2023-05-29T07:35:49;11.00;;;3.07;;
59770;SDS011;45649;53.014;6.600;2023-05-29T07:38:15;13.83;;;3.73;;
59770;SDS011;45649;53.014;6.600;2023-05-29T07:40:41;15.37;;;3.50;;
59770;SDS011;45649;53.014;6.600;2023-05-29T07:43:08;16.23;;;3.30;;
59770;SDS011;45649;53.014;6.600;2023-05-29T07:45:34;17.80;;;3.60;;
59770;SDS011;45649;53.014;6.600;2023-05-29T07:48:00;12.07;;;3.70;;
59770;SDS011;45649;53.014;6.600;2023-05-29T07:50:26;14.47;;;3.60;;
59770;SDS011;45649;53.014;6.600;2023-05-29T07:52:52;12.07;;;3.30;;
59770;SDS011;45649;53.014;6.600;2023-05-29T07:55:20;20.20;;;4.27;;
59770;SDS011;45649;53.014;6.600;2023-05-29T07:57:47;15.83;;;3.57;;
59770;SDS011;45649;53.014;6.600;2023-05-29T08:00:14;13.43;;;3.93;;
59770;SDS011;45649;53.014;6.600;2023-05-29T08:02:40;8.93;;;3.10;;
59770;SDS011;45649;53.014;6.600;2023-05-29T08:05:07;14.50;;;3.40;;
59770;SDS011;45649;53.014;6.600;2023-05-29T08:07:34;15.30;;;3.60;;
59770;SDS011;45649;53.014;6.600;2023-05-29T08:10:00;14.90;;;3.70;;
59770;SDS011;45649;53.014;6.600;2023-05-29T08:12:26;16.00;;;3.70;;
59770;SDS011;45649;53.014;6.600;2023-05-29T08:14:52;19.23;;;3.80;;
59770;SDS011;45649;53.014;6.600;2023-05-29T08:17:18;20.90;;;4.00;;
59770;SDS011;45649;53.014;6.600;2023-05-29T08:19:45;12.63;;;3.13;;
59770;SDS011;45649;53.014;6.600;2023-05-29T08:22:12;22.20;;;3.93;;
59770;SDS011;45649;53.014;6.600;2023-05-29T08:24:38;15.80;;;3.40;;
59770;SDS011;45649;53.014;6.600;2023-05-29T08:27:04;15.37;;;3.43;;
59770;SDS011;45649;53.014;6.600;2023-05-29T08:29:30;16.53;;;3.53;;
59770;SDS011;45649;53.014;6.600;2023-05-29T08:31:57;15.20;;;3.73;;
59770;SDS011;45649;53.014;6.600;2023-05-29T08:34:23;11.43;;;3.03;;
59770;SDS011;45649;53.014;6.600;2023-05-29T08:36:49;14.10;;;3.37;;
59770;SDS011;45649;53.014;6.600;2023-05-29T08:39:16;15.50;;;3.60;;
59770;SDS011;45649;53.014;6.600;2023-05-29T08:44:15;12.53;;;3.20;;
59770;SDS011;45649;53.014;6.600;2023-05-29T08:46:44;10.63;;;3.00;;
59770;SDS011;45649;53.014;6.600;2023-05-29T08:49:10;14.10;;;3.60;;
59770;SDS011;45649;53.014;6.600;2023-05-29T08:51:38;18.47;;;3.60;;
59770;SDS011;45649;53.014;6.600;2023-05-29T08:54:08;14.40;;;3.50;;
59770;SDS011;45649;53.014;6.600;2023-05-29T08:56:35;11.17;;;3.30;;
59770;SDS011;45649;53.014;6.600;2023-05-29T08:59:01;12.60;;;2.90;;
59770;SDS011;45649;53.014;6.600;2023-05-29T09:01:28;19.67;;;3.67;;
59770;SDS011;45649;53.014;6.600;2023-05-29T09:03:55;17.93;;;3.97;;
59770;SDS011;45649;53.014;6.600;2023-05-29T09:06:22;17.03;;;3.60;;
59770;SDS011;45649;53.014;6.600;2023-05-29T09:08:51;16.90;;;3.30;;
59770;SDS011;45649;53.014;6.600;2023-05-29T09:11:17;13.70;;;2.90;;
59770;SDS011;45649;53.014;6.600;2023-05-29T09:13:45;11.97;;;3.60;;
59770;SDS011;45649;53.014;6.600;2023-05-29T09:16:11;15.47;;;3.47;;
59770;SDS011;45649;53.014;6.600;2023-05-29T09:18:37;18.70;;;4.00;;
59770;SDS011;45649;53.014;6.600;2023-05-29T09:21:07;14.40;;;3.13;;
59770;SDS011;45649;53.014;6.600;2023-05-29T09:23:36;23.30;;;3.57;;
59770;SDS011;45649;53.014;6.600;2023-05-29T09:26:02;16.27;;;3.50;;
59770;SDS011;45649;53.014;6.600;2023-05-29T09:28:29;19.03;;;3.83;;
59770;SDS011;45649;53.014;6.600;2023-05-29T09:30:59;12.37;;;3.40;;
59770;SDS011;45649;53.014;6.600;2023-05-29T09:33:25;12.80;;;3.03;;
59770;SDS011;45649;53.014;6.600;2023-05-29T09:35:51;16.70;;;3.53;;
59770;SDS011;45649;53.014;6.600;2023-05-29T09:38:19;15.87;;;3.43;;
59770;SDS011;45649;53.014;6.600;2023-05-29T09:40:45;16.33;;;3.57;;
59770;SDS011;45649;53.014;6.600;2023-05-29T09:43:12;13.63;;;3.90;;
59770;SDS011;45649;53.014;6.600;2023-05-29T09:45:46;16.23;;;3.10;;
59770;SDS011;45649;53.014;6.600;2023-05-29T09:50:42;14.53;;;3.37;;
59770;SDS011;45649;53.014;6.600;2023-05-29T09:53:31;11.13;;;2.97;;
59770;SDS011;45649;53.014;6.600;2023-05-29T09:55:57;13.60;;;3.17;;
59770;SDS011;45649;53.014;6.600;2023-05-29T09:58:24;11.80;;;3.70;;
59770;SDS011;45649;53.014;6.600;2023-05-29T10:00:50;19.77;;;3.83;;
59770;SDS011;45649;53.014;6.600;2023-05-29T10:03:17;17.27;;;3.73;;
59770;SDS011;45649;53.014;6.600;2023-05-29T10:05:49;14.17;;;3.40;;
59770;SDS011;45649;53.014;6.600;2023-05-29T10:08:17;18.23;;;3.73;;
59770;SDS011;45649;53.014;6.600;2023-05-29T10:10:44;10.53;;;3.27;;
59770;SDS011;45649;53.014;6.600;2023-05-29T10:13:12;14.03;;;3.50;;
59770;SDS011;45649;53.014;6.600;2023-05-29T10:15:43;12.03;;;3.00;;
59770;SDS011;45649;53.014;6.600;2023-05-29T10:18:14;13.87;;;3.17;;
59770;SDS011;45649;53.014;6.600;2023-05-29T10:20:44;14.00;;;3.27;;
59770;SDS011;45649;53.014;6.600;2023-05-29T10:23:12;14.30;;;3.10;;
59770;SDS011;45649;53.014;6.600;2023-05-29T10:25:39;12.87;;;3.10;;
59770;SDS011;45649;53.014;6.600;2023-05-29T10:28:07;13.23;;;3.10;;
59770;SDS011;45649;53.014;6.600;2023-05-29T10:30:35;14.17;;;3.17;;
59770;SDS011;45649;53.014;6.600;2023-05-29T10:38:14;13.73;;;3.30;;
59770;SDS011;45649;53.014;6.600;2023-05-29T10:40:42;12.97;;;3.60;;
59770;SDS011;45649;53.014;6.600;2023-05-29T10:43:08;15.60;;;3.13;;
59770;SDS011;45649;53.014;6.600;2023-05-29T10:50:41;13.83;;;3.53;;
59770;SDS011;45649;53.014;6.600;2023-05-29T10:53:07;9.97;;;2.97;;
59770;SDS011;45649;53.014;6.600;2023-05-29T10:55:37;12.17;;;3.10;;
59770;SDS011;45649;53.014;6.600;2023-05-29T10:58:06;12.67;;;3.50;;
59770;SDS011;45649;53.014;6.600;2023-05-29T11:00:33;15.10;;;3.23;;
59770;SDS011;45649;53.014;6.600;2023-05-29T11:03:03;17.60;;;3.23;;
59770;SDS011;45649;53.014;6.600;2023-05-29T11:05:29;15.00;;;3.43;;
59770;SDS011;45649;53.014;6.600;2023-05-29T11:07:56;11.07;;;3.10;;
59770;SDS011;45649;53.014;6.600;2023-05-29T11:13:08;17.20;;;3.07;;
59770;SDS011;45649;53.014;6.600;2023-05-29T11:15:35;13.53;;;2.87;;
59770;SDS011;45649;53.014;6.600;2023-05-29T11:18:06;12.60;;;3.43;;
59770;SDS011;45649;53.014;6.600;2023-05-29T11:25:25;15.97;;;3.03;;
59770;SDS011;45649;53.014;6.600;2023-05-29T11:27:51;14.67;;;3.23;;
59770;SDS011;45649;53.014;6.600;2023-05-29T11:30:21;11.67;;;2.90;;
59770;SDS011;45649;53.014;6.600;2023-05-29T11:32:47;11.83;;;3.00;;
59770;SDS011;45649;53.014;6.600;2023-05-29T11:35:14;13.13;;;3.30;;
59770;SDS011;45649;53.014;6.600;2023-05-29T11:37:42;11.83;;;3.03;;
59770;SDS011;45649;53.014;6.600;2023-05-29T11:40:11;9.97;;;2.73;;
59770;SDS011;45649;53.014;6.600;2023-05-29T11:42:41;11.73;;;3.10;;
59770;SDS011;45649;53.014;6.600;2023-05-29T11:45:17;13.93;;;3.20;;
59770;SDS011;45649;53.014;6.600;2023-05-29T11:47:53;13.83;;;3.07;;
59770;SDS011;45649;53.014;6.600;2023-05-29T11:50:20;12.73;;;2.83;;
59770;SDS011;45649;53.014;6.600;2023-05-29T11:52:46;12.27;;;3.03;;
59770;SDS011;45649;53.014;6.600;2023-05-29T11:55:12;13.23;;;2.93;;
59770;SDS011;45649;53.014;6.600;2023-05-29T11:57:38;13.30;;;3.90;;
59770;SDS011;45649;53.014;6.600;2023-05-29T12:00:04;9.77;;;3.00;;
59770;SDS011;45649;53.014;6.600;2023-05-29T12:02:33;12.00;;;2.87;;
59770;SDS011;45649;53.014;6.600;2023-05-29T12:04:59;11.83;;;3.20;;
59770;SDS011;45649;53.014;6.600;2023-05-29T12:07:26;12.47;;;3.10;;
59770;SDS011;45649;53.014;6.600;2023-05-29T12:09:52;15.43;;;3.13;;
59770;SDS011;45649;53.014;6.600;2023-05-29T12:12:22;10.07;;;2.80;;
59770;SDS011;45649;53.014;6.600;2023-05-29T12:14:52;12.73;;;3.40;;
59770;SDS011;45649;53.014;6.600;2023-05-29T12:17:19;12.93;;;2.60;;
59770;SDS011;45649;53.014;6.600;2023-05-29T12:19:45;15.83;;;3.43;;
59770;SDS011;45649;53.014;6.600;2023-05-29T12:22:11;11.27;;;2.90;;
59770;SDS011;45649;53.014;6.600;2023-05-29T12:24:37;13.20;;;2.90;;
59770;SDS011;45649;53.014;6.600;2023-05-29T12:27:04;12.03;;;2.83;;
59770;SDS011;45649;53.014;6.600;2023-05-29T12:29:35;11.70;;;3.37;;
59770;SDS011;45649;53.014;6.600;2023-05-29T12:32:01;10.70;;;3.00;;
59770;SDS011;45649;53.014;6.600;2023-05-29T12:34:33;10.63;;;2.60;;
59770;SDS011;45649;53.014;6.600;2023-05-29T12:37:08;12.23;;;2.47;;
59770;SDS011;45649;53.014;6.600;2023-05-29T12:39:35;9.90;;;2.60;;
59770;SDS011;45649;53.014;6.600;2023-05-29T12:42:01;9.73;;;2.70;;
59770;SDS011;45649;53.014;6.600;2023-05-29T12:44:27;12.50;;;2.67;;
59770;SDS011;45649;53.014;6.600;2023-05-29T12:46:56;15.13;;;2.77;;
59770;SDS011;45649;53.014;6.600;2023-05-29T12:49:22;14.10;;;2.80;;
59770;SDS011;45649;53.014;6.600;2023-05-29T12:51:50;15.70;;;3.10;;
59770;SDS011;45649;53.014;6.600;2023-05-29T12:54:17;10.33;;;2.77;;
59770;SDS011;45649;53.014;6.600;2023-05-29T12:56:43;11.63;;;3.13;;
59770;SDS011;45649;53.014;6.600;2023-05-29T12:59:11;12.50;;;3.03;;
59770;SDS011;45649;53.014;6.600;2023-05-29T13:01:37;10.30;;;3.00;;
59770;SDS011;45649;53.014;6.600;2023-05-29T13:04:04;11.90;;;2.97;;
59770;SDS011;45649;53.014;6.600;2023-05-29T13:06:32;7.93;;;2.50;;
59770;SDS011;45649;53.014;6.600;2023-05-29T13:08:58;11.40;;;2.30;;
59770;SDS011;45649;53.014;6.600;2023-05-29T13:11:24;12.83;;;2.90;;
59770;SDS011;45649;53.014;6.600;2023-05-29T13:13:50;9.03;;;2.50;;
59770;SDS011;45649;53.014;6.600;2023-05-29T13:16:17;10.00;;;2.47;;
59770;SDS011;45649;53.014;6.600;2023-05-29T13:18:43;10.70;;;2.70;;
59770;SDS011;45649;53.014;6.600;2023-05-29T13:21:09;11.40;;;2.80;;
59770;SDS011;45649;53.014;6.600;2023-05-29T13:23:36;7.53;;;2.33;;
59770;SDS011;45649;53.014;6.600;2023-05-29T13:26:03;5.63;;;2.10;;
59770;SDS011;45649;53.014;6.600;2023-05-29T13:28:30;9.80;;;2.53;;
59770;SDS011;45649;53.014;6.600;2023-05-29T13:30:56;8.77;;;2.30;;
59770;SDS011;45649;53.014;6.600;2023-05-29T13:33:22;10.90;;;2.63;;
59770;SDS011;45649;53.014;6.600;2023-05-29T13:35:48;8.40;;;2.47;;
59770;SDS011;45649;53.014;6.600;2023-05-29T13:38:14;9.17;;;2.50;;
59770;SDS011;45649;53.014;6.600;2023-05-29T13:40:40;11.23;;;2.80;;
59770;SDS011;45649;53.014;6.600;2023-05-29T13:43:06;10.87;;;2.03;;
59770;SDS011;45649;53.014;6.600;2023-05-29T13:45:32;6.60;;;2.20;;
59770;SDS011;45649;53.014;6.600;2023-05-29T13:47:58;13.07;;;2.30;;
59770;SDS011;45649;53.014;6.600;2023-05-29T13:50:25;9.90;;;2.67;;
59770;SDS011;45649;53.014;6.600;2023-05-29T13:52:52;8.93;;;2.27;;
59770;SDS011;45649;53.014;6.600;2023-05-29T13:55:18;12.53;;;2.33;;
59770;SDS011;45649;53.014;6.600;2023-05-29T13:57:44;6.37;;;2.00;;
59770;SDS011;45649;53.014;6.600;2023-05-29T14:00:11;10.53;;;2.40;;
59770;SDS011;45649;53.014;6.600;2023-05-29T14:02:37;10.73;;;2.37;;
59770;SDS011;45649;53.014;6.600;2023-05-29T14:05:05;6.60;;;2.00;;
59770;SDS011;45649;53.014;6.600;2023-05-29T14:07:31;9.57;;;2.30;;
59770;SDS011;45649;53.014;6.600;2023-05-29T14:09:57;10.40;;;2.60;;
59770;SDS011;45649;53.014;6.600;2023-05-29T14:12:23;12.43;;;2.60;;
59770;SDS011;45649;53.014;6.600;2023-05-29T14:14:49;8.80;;;2.20;;
59770;SDS011;45649;53.014;6.600;2023-05-29T14:17:16;10.80;;;2.33;;
59770;SDS011;45649;53.014;6.600;2023-05-29T14:19:42;4.77;;;1.97;;
59770;SDS011;45649;53.014;6.600;2023-05-29T14:22:10;12.40;;;2.63;;
59770;SDS011;45649;53.014;6.600;2023-05-29T14:24:36;6.60;;;2.00;;
59770;SDS011;45649;53.014;6.600;2023-05-29T14:27:03;8.57;;;2.10;;
59770;SDS011;45649;53.014;6.600;2023-05-29T14:29:29;9.27;;;2.47;;
59770;SDS011;45649;53.014;6.600;2023-05-29T14:31:56;9.47;;;2.30;;
59770;SDS011;45649;53.014;6.600;2023-05-29T14:34:22;6.27;;;2.07;;
59770;SDS011;45649;53.014;6.600;2023-05-29T14:36:48;8.00;;;2.30;;
59770;SDS011;45649;53.014;6.600;2023-05-29T14:39:14;6.87;;;1.90;;
59770;SDS011;45649;53.014;6.600;2023-05-29T14:41:41;9.27;;;2.33;;
59770;SDS011;45649;53.014;6.600;2023-05-29T14:44:07;9.47;;;2.20;;
59770;SDS011;45649;53.014;6.600;2023-05-29T14:46:33;9.50;;;2.37;;
59770;SDS011;45649;53.014;6.600;2023-05-29T14:49:00;8.57;;;2.27;;
59770;SDS011;45649;53.014;6.600;2023-05-29T14:51:27;14.30;;;2.70;;
59770;SDS011;45649;53.014;6.600;2023-05-29T14:53:53;8.00;;;2.23;;
59770;SDS011;45649;53.014;6.600;2023-05-29T14:56:19;7.03;;;2.20;;
59770;SDS011;45649;53.014;6.600;2023-05-29T14:58:46;12.03;;;2.17;;
59770;SDS011;45649;53.014;6.600;2023-05-29T15:01:15;8.47;;;2.50;;
59770;SDS011;45649;53.014;6.600;2023-05-29T15:03:42;6.97;;;2.00;;